createdAt,value
2022-12-01T00:01:57.022Z,4.73
2022-12-01T00:04:23.600Z,4.48
2022-12-01T00:06:50.041Z,4.33
2022-12-01T00:09:35.269Z,4.44
2022-12-01T00:12:01.697Z,4.50
2022-12-01T00:14:28.124Z,4.70
2022-12-01T00:16:54.625Z,4.95
2022-12-01T00:19:24.222Z,4.98
2022-12-01T00:21:50.650Z,4.37
2022-12-01T00:24:17.112Z,4.28
2022-12-01T00:26:43.548Z,4.54
2022-12-01T00:29:10.902Z,4.38
2022-12-01T00:31:37.517Z,4.48
2022-12-01T00:34:09.479Z,4.26
2022-12-01T00:36:37.728Z,4.30
2022-12-01T00:39:04.193Z,4.37
2022-12-01T00:41:30.628Z,4.13
2022-12-01T00:43:57.141Z,4.21
2022-12-01T00:46:24.015Z,4.45
2022-12-01T00:48:50.489Z,4.32
2022-12-01T00:51:16.980Z,4.25
2022-12-01T00:53:43.468Z,4.27
2022-12-01T00:56:10.158Z,4.08
2022-12-01T00:58:36.649Z,4.23
2022-12-01T01:01:03.895Z,4.22
2022-12-01T01:03:30.884Z,4.36
2022-12-01T01:06:03.123Z,4.52
2022-12-01T01:08:29.587Z,4.46
2022-12-01T01:10:59.028Z,4.19
2022-12-01T01:13:25.581Z,4.20
2022-12-01T01:15:59.782Z,4.32
2022-12-01T01:18:26.290Z,4.20
2022-12-01T01:20:57.307Z,4.04
2022-12-01T01:23:23.789Z,3.96
2022-12-01T01:25:50.272Z,4.07
2022-12-01T01:28:16.787Z,4.09
2022-12-01T01:30:43.208Z,4.15
2022-12-01T01:33:10.263Z,4.34
2022-12-01T01:35:36.736Z,4.21
2022-12-01T01:38:03.481Z,4.13
2022-12-01T01:40:29.936Z,4.15
2022-12-01T01:42:56.362Z,4.18
2022-12-01T01:45:24.335Z,4.26
2022-12-01T01:47:52.594Z,4.26
2022-12-01T01:50:21.340Z,4.25
2022-12-01T01:52:53.437Z,4.39
2022-12-01T01:55:19.949Z,4.28
2022-12-01T01:57:46.628Z,4.48
2022-12-01T02:00:14.777Z,4.56
2022-12-01T02:02:44.418Z,4.62
2022-12-01T02:05:19.390Z,4.66
2022-12-01T02:07:46.827Z,4.50
2022-12-01T02:10:14.314Z,4.66
2022-12-01T02:12:56.170Z,4.51
2022-12-01T02:15:37.444Z,4.67
2022-12-01T02:18:06.870Z,4.55
2022-12-01T02:20:57.065Z,4.49
2022-12-01T02:23:29.324Z,4.45
2022-12-01T02:25:56.048Z,4.48
2022-12-01T02:28:34.859Z,4.62
2022-12-01T02:31:05.319Z,4.50
2022-12-01T02:33:51.359Z,4.50
2022-12-01T02:36:26.057Z,4.58
2022-12-01T02:38:56.174Z,4.57
2022-12-01T02:41:29.497Z,4.67
2022-12-01T02:44:07.184Z,4.63
2022-12-01T02:46:44.358Z,4.68
2022-12-01T02:49:16.006Z,4.79
2022-12-01T02:51:44.710Z,4.67
2022-12-01T02:54:12.277Z,4.72
2022-12-01T02:56:38.778Z,4.75
2022-12-01T02:59:12.505Z,4.63
2022-12-01T03:01:52.552Z,4.67
2022-12-01T03:04:28.572Z,4.69
2022-12-01T03:07:15.592Z,4.56
2022-12-01T03:09:48.525Z,4.68
2022-12-01T03:12:21.055Z,4.53
2022-12-01T03:14:57.956Z,4.56
2022-12-01T03:17:28.260Z,4.57
2022-12-01T03:19:58.476Z,4.68
2022-12-01T03:22:37.925Z,4.63
2022-12-01T03:25:05.018Z,4.55
2022-12-01T03:27:33.458Z,4.53
2022-12-01T03:30:01.156Z,4.49
2022-12-01T03:32:31.938Z,4.54
2022-12-01T03:35:11.075Z,4.60
2022-12-01T03:37:43.409Z,4.54
2022-12-01T03:40:12.167Z,4.57
2022-12-01T03:42:44.473Z,4.54
2022-12-01T03:45:24.379Z,4.56
2022-12-01T03:47:51.657Z,4.49
2022-12-01T03:50:18.640Z,4.58
2022-12-01T03:53:07.093Z,4.53
2022-12-01T03:55:37.901Z,4.51
2022-12-01T03:58:22.996Z,4.43
2022-12-01T04:00:53.139Z,4.45
2022-12-01T04:03:20.526Z,4.41
2022-12-01T04:05:47.019Z,4.39
2022-12-01T04:08:13.489Z,4.27
2022-12-01T04:10:39.955Z,4.26
2022-12-01T04:13:11.842Z,4.33
2022-12-01T04:15:38.340Z,4.18
2022-12-01T04:18:05.037Z,4.29
2022-12-01T04:20:31.558Z,4.28
2022-12-01T04:22:58.028Z,4.26
2022-12-01T04:25:24.474Z,4.25
2022-12-01T04:27:50.938Z,4.32
2022-12-01T04:30:17.509Z,4.45
2022-12-01T04:32:44.229Z,4.37
2022-12-01T04:35:12.232Z,4.35
2022-12-01T04:37:39.213Z,4.31
2022-12-01T04:40:06.209Z,4.21
2022-12-01T04:42:32.805Z,4.36
2022-12-01T04:44:59.243Z,4.34
2022-12-01T04:47:25.701Z,4.14
2022-12-01T04:49:52.339Z,4.12
2022-12-01T04:52:18.854Z,4.18
2022-12-01T04:54:45.343Z,4.03
2022-12-01T04:57:11.918Z,4.06
2022-12-01T04:59:38.460Z,4.03
2022-12-01T05:02:05.060Z,4.02
2022-12-01T05:04:32.588Z,3.79
2022-12-01T05:06:59.088Z,3.78
2022-12-01T05:09:25.497Z,3.86
2022-12-01T05:11:52.005Z,3.97
2022-12-01T05:14:18.450Z,3.97
2022-12-01T05:16:44.902Z,3.86
2022-12-01T05:19:29.976Z,3.86
2022-12-01T05:21:56.434Z,3.75
2022-12-01T05:24:22.968Z,3.67
2022-12-01T05:26:49.506Z,3.66
2022-12-01T05:29:15.992Z,3.65
2022-12-01T05:31:42.638Z,3.69
2022-12-01T05:34:09.235Z,3.59
2022-12-01T05:36:36.396Z,3.65
2022-12-01T05:39:03.111Z,3.72
2022-12-01T05:41:29.616Z,3.65
2022-12-01T05:43:56.033Z,3.85
2022-12-01T05:46:22.596Z,3.81
2022-12-01T05:48:49.181Z,3.73
2022-12-01T05:51:16.601Z,3.75
2022-12-01T05:53:43.596Z,3.58
2022-12-01T05:56:10.332Z,3.76
2022-12-01T05:58:36.999Z,3.64
2022-12-01T06:01:04.094Z,3.37
2022-12-01T06:03:30.509Z,3.40
2022-12-01T06:05:56.954Z,3.37
2022-12-01T06:08:23.586Z,3.41
2022-12-01T06:10:50.052Z,3.42
2022-12-01T06:13:16.517Z,3.36
2022-12-01T06:15:43.041Z,3.38
2022-12-01T06:18:09.910Z,3.33
2022-12-01T06:20:36.369Z,3.44
2022-12-01T06:23:02.947Z,3.36
2022-12-01T06:25:29.452Z,3.18
2022-12-01T06:27:57.287Z,3.36
2022-12-01T06:30:23.914Z,3.52
2022-12-01T06:32:50.359Z,3.43
2022-12-01T06:35:16.811Z,3.48
2022-12-01T06:37:43.275Z,3.56
2022-12-01T06:40:10.111Z,3.35
2022-12-01T06:42:36.621Z,3.38
2022-12-01T06:45:03.227Z,3.67
2022-12-01T06:47:29.789Z,3.51
2022-12-01T06:49:56.340Z,3.37
2022-12-01T06:52:22.819Z,3.47
2022-12-01T06:54:49.468Z,3.34
2022-12-01T06:57:16.258Z,3.38
2022-12-01T06:59:43.073Z,3.42
2022-12-01T07:02:13.168Z,3.55
2022-12-01T07:04:39.723Z,3.62
2022-12-01T07:07:06.449Z,3.56
2022-12-01T07:09:33.048Z,3.60
2022-12-01T07:11:59.657Z,3.44
2022-12-01T07:14:26.856Z,3.38
2022-12-01T07:16:53.429Z,3.47
2022-12-01T07:19:20.028Z,3.27
2022-12-01T07:21:46.484Z,3.14
2022-12-01T07:24:13.029Z,3.22
2022-12-01T07:26:41.099Z,3.40
2022-12-01T07:29:08.651Z,3.31
2022-12-01T07:31:35.790Z,3.34
2022-12-01T07:34:02.358Z,3.22
2022-12-01T07:36:28.823Z,3.48
2022-12-01T07:38:55.363Z,3.44
2022-12-01T07:41:21.843Z,3.56
2022-12-01T07:43:50.319Z,3.63
2022-12-01T07:46:22.236Z,3.58
2022-12-01T07:48:50.184Z,3.58
2022-12-01T07:51:16.833Z,3.46
2022-12-01T07:53:44.260Z,3.53
2022-12-01T07:56:11.029Z,3.62
2022-12-01T07:58:37.751Z,3.70
2022-12-01T08:01:08.391Z,3.62
2022-12-01T08:03:35.114Z,3.86
2022-12-01T08:06:01.998Z,3.71
2022-12-01T08:08:29.838Z,3.55
2022-12-01T08:10:59.359Z,3.57
2022-12-01T08:13:25.881Z,3.62
2022-12-01T08:15:52.447Z,3.82
2022-12-01T08:18:18.934Z,3.85
2022-12-01T08:20:45.394Z,3.97
2022-12-01T08:23:11.845Z,3.90
2022-12-01T08:25:38.257Z,4.02
2022-12-01T08:28:04.881Z,3.93
2022-12-01T08:30:31.350Z,3.81
2022-12-01T08:32:58.934Z,3.75
2022-12-01T08:35:25.434Z,3.82
2022-12-01T08:37:52.860Z,3.75
2022-12-01T08:40:19.729Z,3.88
2022-12-01T08:42:46.191Z,3.67
2022-12-01T08:45:12.708Z,3.82
2022-12-01T08:47:39.887Z,3.97
2022-12-01T08:50:06.633Z,4.03
2022-12-01T08:52:33.960Z,4.07
2022-12-01T08:55:00.401Z,3.96
2022-12-01T08:57:28.625Z,3.90
2022-12-01T08:59:55.106Z,4.24
2022-12-01T09:02:24.711Z,3.95
2022-12-01T09:04:51.256Z,4.15
2022-12-01T09:07:24.456Z,3.84
2022-12-01T09:09:52.921Z,4.07
2022-12-01T09:12:19.636Z,4.10
2022-12-01T09:14:48.367Z,4.14
2022-12-01T09:17:15.855Z,4.32
2022-12-01T09:19:42.681Z,4.41
2022-12-01T09:22:09.761Z,4.13
2022-12-01T09:24:36.337Z,4.39
2022-12-01T09:27:03.469Z,4.33
2022-12-01T09:29:30.373Z,4.50
2022-12-01T09:31:57.458Z,4.53
2022-12-01T09:34:24.118Z,4.47
2022-12-01T09:36:50.534Z,4.57
2022-12-01T09:39:18.525Z,4.49
2022-12-01T09:41:45.265Z,4.49
2022-12-01T09:44:22.771Z,4.22
2022-12-01T09:46:49.366Z,4.09
2022-12-01T09:49:18.827Z,4.15
2022-12-01T09:51:45.325Z,4.19
2022-12-01T09:54:13.446Z,3.99
2022-12-01T09:56:43.640Z,4.28
2022-12-01T09:59:13.907Z,4.26
2022-12-01T10:01:42.734Z,4.37
2022-12-01T10:04:17.580Z,4.31
2022-12-01T10:06:48.298Z,4.00
2022-12-01T10:09:23.298Z,4.10
2022-12-01T10:11:51.717Z,4.16
2022-12-01T10:14:20.683Z,4.20
2022-12-01T10:17:03.608Z,4.17
2022-12-01T10:19:46.706Z,4.19
2022-12-01T10:22:19.346Z,4.04
2022-12-01T10:24:45.781Z,4.22
2022-12-01T10:27:35.170Z,4.23
2022-12-01T10:30:15.550Z,4.28
2022-12-01T10:32:42.024Z,4.21
2022-12-01T10:35:11.768Z,4.23
2022-12-01T10:37:38.377Z,4.26
2022-12-01T10:40:05.295Z,4.17
2022-12-01T10:42:37.605Z,4.09
2022-12-01T10:45:05.703Z,4.11
2022-12-01T10:47:32.156Z,3.97
2022-12-01T10:49:59.020Z,4.26
2022-12-01T10:52:28.438Z,4.29
2022-12-01T10:54:54.880Z,4.10
2022-12-01T10:57:21.517Z,4.14
2022-12-01T10:59:48.207Z,4.28
2022-12-01T11:02:17.824Z,4.25
2022-12-01T11:05:06.837Z,4.38
2022-12-01T11:07:33.337Z,4.22
2022-12-01T11:10:02.918Z,4.30
2022-12-01T11:12:29.750Z,4.20
2022-12-01T11:14:57.358Z,4.06
2022-12-01T11:17:26.864Z,4.21
2022-12-01T11:19:53.809Z,3.91
2022-12-01T11:22:22.131Z,3.91
2022-12-01T11:24:57.908Z,4.28
2022-12-01T11:27:29.511Z,4.03
2022-12-01T11:29:57.272Z,4.14
2022-12-01T11:32:32.005Z,4.30
2022-12-01T11:35:00.457Z,4.25
2022-12-01T11:37:29.504Z,4.27
2022-12-01T11:40:04.777Z,4.27
2022-12-01T11:42:31.290Z,4.27
2022-12-01T11:45:02.964Z,4.04
2022-12-01T11:47:29.607Z,4.12
2022-12-01T11:49:58.000Z,4.18
2022-12-01T11:52:27.575Z,4.16
2022-12-01T11:54:55.239Z,4.32
2022-12-01T11:57:36.894Z,4.04
2022-12-01T12:00:29.564Z,4.00
2022-12-01T12:03:04.478Z,4.03
2022-12-01T12:05:49.838Z,4.15
2022-12-01T12:08:28.622Z,4.18
2022-12-01T12:11:01.089Z,4.30
2022-12-01T12:13:33.558Z,4.37
2022-12-01T12:16:12.496Z,4.45
2022-12-01T12:18:38.910Z,4.39
2022-12-01T12:21:17.247Z,4.53
2022-12-01T12:23:49.678Z,4.79
2022-12-01T12:26:16.088Z,4.64
2022-12-01T12:29:01.056Z,4.44
2022-12-01T12:31:43.428Z,4.48
2022-12-01T12:34:22.776Z,4.57
2022-12-01T12:36:58.878Z,4.48
2022-12-01T12:39:40.619Z,5.26
2022-12-01T12:42:14.905Z,4.75
2022-12-01T12:45:01.856Z,4.60
2022-12-01T12:47:34.477Z,4.44
2022-12-01T12:50:07.372Z,4.26
2022-12-01T12:52:40.602Z,4.50
2022-12-01T12:55:13.049Z,4.35
2022-12-01T12:57:52.336Z,4.21
2022-12-01T13:00:20.728Z,4.31
2022-12-01T13:02:50.354Z,4.42
2022-12-01T13:05:35.692Z,4.30
2022-12-01T13:08:11.388Z,4.37
2022-12-01T13:10:59.408Z,4.35
2022-12-01T13:13:46.084Z,4.29
2022-12-01T13:16:15.553Z,4.34
2022-12-01T13:18:47.694Z,4.51
2022-12-01T13:21:19.414Z,4.57
2022-12-01T13:23:46.994Z,4.49
2022-12-01T13:26:14.922Z,4.67
2022-12-01T13:28:44.165Z,4.78
2022-12-01T13:31:12.813Z,4.72
2022-12-01T13:33:41.487Z,4.77
2022-12-01T13:38:58.330Z,4.94
2022-12-01T13:41:28.346Z,5.05
2022-12-01T13:43:57.774Z,4.87
2022-12-01T13:46:30.648Z,4.86
2022-12-01T13:48:58.290Z,5.36
2022-12-01T13:51:25.709Z,5.12
2022-12-01T13:54:03.276Z,4.83
2022-12-01T13:56:39.605Z,4.77
2022-12-01T13:59:27.289Z,5.19
2022-12-01T14:02:06.093Z,4.88
2022-12-01T14:04:34.582Z,4.87
2022-12-01T14:07:16.129Z,4.84
2022-12-01T14:09:44.021Z,4.88
2022-12-01T14:12:29.108Z,4.79
2022-12-01T14:15:04.057Z,4.72
2022-12-01T14:17:30.565Z,4.60
2022-12-01T14:20:06.921Z,4.85
2022-12-01T14:22:41.916Z,4.74
2022-12-01T14:25:24.158Z,4.71
2022-12-01T14:27:58.551Z,4.82
2022-12-01T14:30:45.649Z,4.87
2022-12-01T14:33:31.050Z,4.89
2022-12-01T14:36:00.641Z,5.07
2022-12-01T14:38:28.212Z,5.10
2022-12-01T14:40:55.052Z,5.12
2022-12-01T14:43:40.238Z,4.96
2022-12-01T14:46:08.471Z,4.86
2022-12-01T14:48:37.888Z,4.99
2022-12-01T14:51:11.594Z,5.15
2022-12-01T14:53:40.834Z,4.98
2022-12-01T14:56:16.257Z,4.90
2022-12-01T14:58:59.833Z,4.74
2022-12-01T15:01:34.821Z,4.72
2022-12-01T15:04:02.325Z,4.74
2022-12-01T15:06:29.909Z,4.79
2022-12-01T15:12:00.528Z,4.45
2022-12-01T15:14:35.620Z,4.41
2022-12-01T15:17:05.040Z,4.49
2022-12-01T15:19:39.138Z,4.48
2022-12-01T15:22:07.517Z,4.46
2022-12-01T15:24:34.176Z,4.80
2022-12-01T15:27:03.948Z,4.63
2022-12-01T15:29:32.360Z,4.52
2022-12-01T15:32:00.753Z,4.50
2022-12-01T15:34:30.502Z,4.31
2022-12-01T15:36:57.745Z,4.35
2022-12-01T15:39:29.918Z,4.38
2022-12-01T15:41:56.609Z,4.38
2022-12-01T15:44:28.106Z,4.30
2022-12-01T15:46:54.660Z,4.31
2022-12-01T15:49:27.572Z,4.29
2022-12-01T15:51:54.870Z,4.30
2022-12-01T15:54:23.173Z,4.44
2022-12-01T15:56:56.669Z,4.51
2022-12-01T15:59:28.639Z,4.46
2022-12-01T16:01:56.816Z,4.51
2022-12-01T16:04:25.710Z,4.72
2022-12-01T16:06:57.465Z,4.74
2022-12-01T16:09:34.207Z,4.72
2022-12-01T16:12:04.978Z,4.78
2022-12-01T16:14:32.266Z,4.51
2022-12-01T16:16:59.898Z,4.62
2022-12-01T16:19:29.869Z,4.73
2022-12-01T16:22:01.714Z,4.80
2022-12-01T16:24:35.798Z,4.76
2022-12-01T16:27:04.288Z,4.61
2022-12-01T16:29:33.787Z,4.66
2022-12-01T16:32:24.718Z,4.76
2022-12-01T16:34:52.452Z,4.71
2022-12-01T16:37:19.658Z,4.64
2022-12-01T16:39:46.130Z,4.63
2022-12-01T16:42:16.584Z,4.67
2022-12-01T16:44:44.752Z,4.81
2022-12-01T16:47:12.768Z,4.75
2022-12-01T16:49:39.412Z,4.75
2022-12-01T16:52:22.023Z,4.93
2022-12-01T16:54:52.442Z,4.90
2022-12-01T16:57:18.980Z,4.94
2022-12-01T16:59:45.403Z,4.87
2022-12-01T17:02:11.945Z,4.88
2022-12-01T17:04:38.487Z,5.03
2022-12-01T17:07:04.996Z,5.02
2022-12-01T17:09:31.653Z,5.10
2022-12-01T17:11:59.208Z,4.93
2022-12-01T17:14:25.738Z,4.90
2022-12-01T17:16:52.235Z,4.82
2022-12-01T17:19:21.109Z,4.79
2022-12-01T17:21:47.537Z,4.91
2022-12-01T17:24:18.664Z,4.80
2022-12-01T17:26:45.597Z,4.73
2022-12-01T17:29:12.095Z,4.61
2022-12-01T17:31:38.644Z,4.73
2022-12-01T17:34:05.239Z,4.80
2022-12-01T17:36:31.726Z,4.77
2022-12-01T17:38:58.721Z,4.89
2022-12-01T17:41:32.021Z,4.75
2022-12-01T17:43:58.602Z,4.77
2022-12-01T17:46:25.448Z,4.79
2022-12-01T17:48:52.039Z,4.84
2022-12-01T17:51:18.498Z,5.00
2022-12-01T17:53:44.976Z,5.08
2022-12-01T17:56:12.632Z,4.99
2022-12-01T17:58:39.535Z,4.76
2022-12-01T18:01:06.917Z,4.77
2022-12-01T18:03:33.417Z,4.87
2022-12-01T18:06:01.722Z,4.85
2022-12-01T18:08:29.372Z,4.86
2022-12-01T18:10:55.932Z,4.80
2022-12-01T18:13:22.664Z,4.87
2022-12-01T18:15:49.164Z,4.91
2022-12-01T18:18:15.712Z,4.86
2022-12-01T18:20:43.484Z,4.75
2022-12-01T18:23:10.895Z,4.86
2022-12-01T18:25:37.774Z,4.93
2022-12-01T18:28:04.773Z,4.89
2022-12-01T18:30:31.453Z,4.87
2022-12-01T18:32:59.650Z,4.84
2022-12-01T18:35:31.576Z,4.82
2022-12-01T18:37:58.425Z,5.08
2022-12-01T18:40:26.053Z,4.96
2022-12-01T18:42:52.510Z,4.86
2022-12-01T18:45:21.494Z,4.83
2022-12-01T18:47:48.285Z,4.87
2022-12-01T18:50:14.911Z,4.76
2022-12-01T18:52:41.392Z,4.90
2022-12-01T18:55:08.144Z,4.86
2022-12-01T18:57:34.547Z,4.91
2022-12-01T19:00:01.142Z,4.90
2022-12-01T19:02:27.665Z,4.94
2022-12-01T19:04:54.222Z,4.86
2022-12-01T19:07:24.029Z,4.90
2022-12-01T19:09:55.104Z,4.89
2022-12-01T19:12:24.110Z,4.91
2022-12-01T19:14:52.957Z,4.88
2022-12-01T19:17:20.036Z,4.53
2022-12-01T19:19:47.450Z,4.66
2022-12-01T19:22:14.018Z,4.75
2022-12-01T19:24:40.469Z,4.75
2022-12-01T19:27:07.001Z,4.77
2022-12-01T19:29:33.656Z,4.76
2022-12-01T19:32:00.548Z,4.59
2022-12-01T19:34:27.437Z,4.50
2022-12-01T19:36:54.392Z,4.41
2022-12-01T19:39:20.919Z,4.54
2022-12-01T19:41:47.415Z,4.78
2022-12-01T19:44:15.011Z,4.71
2022-12-01T19:46:41.501Z,4.47
2022-12-01T19:49:08.001Z,4.56
2022-12-01T19:51:35.643Z,4.71
2022-12-01T19:54:02.781Z,4.79
2022-12-01T19:56:29.480Z,4.84
2022-12-01T19:58:56.984Z,4.76
2022-12-01T20:01:23.593Z,4.72
2022-12-01T20:03:52.196Z,4.62
2022-12-01T20:06:28.915Z,4.66
2022-12-01T20:08:57.372Z,4.80
2022-12-01T20:11:24.413Z,4.74
2022-12-01T20:13:52.279Z,4.76
2022-12-01T20:16:20.656Z,4.68
2022-12-01T20:18:47.798Z,4.77
2022-12-01T20:21:17.033Z,4.79
2022-12-01T20:23:44.359Z,4.81
2022-12-01T20:26:11.357Z,4.81
2022-12-01T20:28:38.874Z,4.71
2022-12-01T20:31:10.415Z,4.80
2022-12-01T20:33:36.877Z,4.92
2022-12-01T20:36:03.541Z,4.75
2022-12-01T20:38:30.061Z,4.80
2022-12-01T20:40:56.654Z,4.79
2022-12-01T20:43:23.117Z,4.81
2022-12-01T20:45:49.655Z,4.93
2022-12-01T20:48:16.428Z,4.79
2022-12-01T20:50:42.976Z,4.78
2022-12-01T20:53:09.489Z,4.65
2022-12-01T20:55:36.835Z,4.70
2022-12-01T20:58:09.803Z,4.69
2022-12-01T21:00:40.549Z,4.83
2022-12-01T21:03:08.073Z,4.83
2022-12-01T21:05:34.661Z,4.89
2022-12-01T21:08:01.442Z,5.14
2022-12-01T21:10:28.385Z,4.97
2022-12-01T21:13:17.920Z,4.73
2022-12-01T21:16:00.088Z,4.91
2022-12-01T21:18:37.462Z,4.92
2022-12-01T21:21:07.898Z,4.94
2022-12-01T21:23:34.398Z,5.08
2022-12-01T21:26:01.308Z,5.06
2022-12-01T21:28:27.767Z,5.06
2022-12-01T21:31:11.067Z,5.09
2022-12-01T21:33:38.934Z,5.10
2022-12-01T21:36:16.090Z,4.94
2022-12-01T21:38:43.340Z,4.90
2022-12-01T21:41:14.854Z,4.92
2022-12-01T21:43:41.651Z,4.92
2022-12-01T21:46:15.045Z,4.97
2022-12-01T21:48:41.748Z,5.01
2022-12-01T21:51:24.765Z,4.74
2022-12-01T21:53:52.118Z,4.67
2022-12-01T21:56:23.940Z,4.86
2022-12-01T21:58:51.193Z,4.70
2022-12-01T22:01:26.869Z,4.53
2022-12-01T22:04:00.517Z,4.53
2022-12-01T22:06:34.155Z,4.60
2022-12-01T22:09:02.221Z,4.81
2022-12-01T22:11:29.771Z,4.92
2022-12-01T22:14:04.093Z,4.92
2022-12-01T22:16:31.912Z,4.95
2022-12-01T22:18:59.363Z,4.91
2022-12-01T22:21:27.907Z,4.86
2022-12-01T22:24:01.346Z,4.92
2022-12-01T22:26:27.921Z,4.93
2022-12-01T22:28:56.199Z,4.80
2022-12-01T22:31:23.070Z,4.74
2022-12-01T22:34:00.036Z,4.71
2022-12-01T22:36:30.595Z,4.78
2022-12-01T22:38:57.843Z,4.63
2022-12-01T22:41:24.466Z,4.56
2022-12-01T22:44:02.993Z,4.56
2022-12-01T22:46:34.457Z,4.50
2022-12-01T22:49:00.972Z,4.60
2022-12-01T22:51:50.774Z,4.61
2022-12-01T22:54:17.166Z,4.62
2022-12-01T22:56:44.749Z,4.64
2022-12-01T22:59:14.309Z,4.66
2022-12-01T23:01:46.556Z,4.51
2022-12-01T23:04:21.106Z,4.61
2022-12-01T23:06:57.077Z,4.66
2022-12-01T23:09:26.466Z,4.79
2022-12-01T23:11:56.195Z,4.75
2022-12-01T23:14:23.543Z,4.77
2022-12-01T23:16:52.414Z,4.74
2022-12-01T23:19:18.918Z,4.81
2022-12-01T23:21:45.323Z,4.80
2022-12-01T23:24:18.176Z,4.71
2022-12-01T23:26:46.074Z,4.77
2022-12-01T23:29:12.656Z,4.83
2022-12-01T23:31:39.375Z,4.93
2022-12-01T23:34:13.704Z,4.86
2022-12-01T23:36:40.237Z,4.91
2022-12-01T23:39:10.178Z,4.89
2022-12-01T23:41:41.976Z,4.89
2022-12-01T23:44:20.331Z,4.89
2022-12-01T23:46:48.967Z,4.82
2022-12-01T23:49:16.708Z,4.69
2022-12-01T23:51:50.903Z,4.89
2022-12-01T23:54:17.356Z,5.33
2022-12-01T23:56:45.202Z,5.09
2022-12-01T23:59:12.927Z,4.84
